• Join FlightAware (Why Join?)
  • Login
  • US Flag 
01:50PM EDT


 

Airport Tracker/Info


-or-


 

Live Flight TrackerFlight Track Log ✈ ASQ5458 ✈ 09-Apr-2013 ✈ KATL - CYYZ

Flight Track Log - Related Links

Times and Time Zones

All times are in EDT time to prevent confusion due to time zone crossing. See the ASQ5458 flight status page for this flight to view local times or setup timezone preferences in your user account.

Time Position Orientation Groundspeed Altitude Reporting Facility
EDT Latitude Longitude Course Direction KTS MPH feet Rate Location/Type
05:46PM 33.6497 -84.3558 North 450 518 2,400  Level Atlanta Center
05:47PM 33.6500 -84.3333 89° East 240 276 3,100 2,460 Climbing Atlanta TRACON
05:47PM 33.6667 -84.2500 76° East 274 315 5,400 2,580 Climbing Atlanta TRACON
05:48PM 33.7167 -84.1833 48° Northeast 293 337 8,100 2,100 Climbing Atlanta TRACON
05:49PM 33.8000 -84.1833 360° North 304 350 9,600 1,320 Climbing Atlanta TRACON
05:51PM 33.9631 -84.2717 336° Northwest 392 451 11,900 1,500 Climbing Atlanta Center
05:52PM 34.0846 -84.2667 North  Level FlightAware Approximate
05:52PM 34.0758 -84.2769 358° North 397 457 13,900  Level Atlanta Center
05:53PM 34.1906 -84.2800 359° North 397 457 15,900 1,920 Climbing Atlanta Center
05:54PM 34.3053 -84.2778 North 404 465 17,800 1,560 Climbing Atlanta Center
05:55PM 34.4119 -84.2553 10° North 416 479 19,100 1,380 Climbing Atlanta Center
05:56PM 34.5289 -84.2253 12° North 426 490 20,600 1,500 Climbing Atlanta Center
05:57PM 34.6456 -84.1978 11° North 432 497 22,100 1,560 Climbing Atlanta Center
05:58PM 34.7750 -84.1703 10° North 427 491 23,800 1,620 Climbing Atlanta Center
05:59PM 34.8961 -84.1375 13° North 432 497 25,400 1,500 Climbing Atlanta Center
06:00PM 35.0150 -84.1097 11° North 432 497 26,800 1,200 Climbing Atlanta Center
06:01PM 35.1361 -84.0819 11° North 432 497 27,900 1,020 Climbing Atlanta Center
06:02PM 35.2592 -84.0539 11° North 432 497 28,900 960 Climbing Atlanta Center
06:03PM 35.3803 -84.0233 12° North 437 503 29,900 960 Climbing Atlanta Center
06:04PM 35.5033 -83.9903 12° North 442 509 30,900 960 Climbing Atlanta Center
06:05PM 35.6286 -83.9622 10° North 447 514 31,900 960 Climbing Atlanta Center
06:06PM 35.7517 -83.9339 11° North 447 514 32,900 960 Climbing Atlanta Center
06:07PM 35.8767 -83.9003 12° North 447 514 33,900 1,020 Climbing Atlanta Center
06:08PM 35.9914 -83.8411 23° Northeast 442 509 35,000 540 Climbing Atlanta Center
06:09PM 36.1039 -83.7689 27° Northeast 442 509 35,000  Level Atlanta Center
06:10PM 36.2225 -83.6964 26° Northeast 452 520 35,000  Level Atlanta Center
06:11PM 36.3392 -83.6211 27° Northeast 464 534 35,000  Level Atlanta Center
06:12PM 36.4083 -83.5753 28° Northeast 480 552 35,000  Level Indianapolis Center
06:13PM 36.5328 -83.4958 27° Northeast 478 550 35,000  Level Indianapolis Center
06:14PM 36.6497 -83.4181 28° Northeast 476 548 35,000  Level Indianapolis Center
06:15PM 36.7558 -83.3164 37° Northeast 475 547 35,000  Level Indianapolis Center
06:16PM 36.8642 -83.2164 36° Northeast 477 549 35,000  Level Indianapolis Center
06:17PM 36.9814 -83.1336 29° Northeast 477 549 35,000  Level Indianapolis Center
06:18PM 37.1000 -83.0500 29° Northeast 479 551 35,000  Level Indianapolis Center
06:19PM 37.2350 -82.9497 31° Northeast 477 549 35,000  Level Indianapolis Center
06:20PM 37.3514 -82.8658 30° Northeast 478 550 35,000  Level Indianapolis Center
06:21PM 37.4678 -82.7817 30° Northeast 479 551 35,000  Level Indianapolis Center
06:22PM 37.5906 -82.7186 22° Northeast 474 545 35,000  Level Indianapolis Center
06:23PM 37.7136 -82.6589 21° North 472 543 35,000  Level Indianapolis Center
06:24PM 37.8350 -82.5944 23° Northeast 472 543 35,000  Level Indianapolis Center
06:25PM 37.9783 -82.5194 22° Northeast 474 545 35,000  Level Indianapolis Center
06:26PM 38.1008 -82.4542 23° Northeast 475 547 35,000  Level Indianapolis Center
06:27PM 38.2053 -82.3894 26° Northeast 477 549 35,000  Level Indianapolis Center
06:28PM 38.3478 -82.2922 28° Northeast 481 554 35,000  Level Indianapolis Center
06:29PM 38.4656 -82.2128 28° Northeast 478 550 35,000  Level Indianapolis Center
06:30PM 38.5844 -82.1322 28° Northeast 479 551 35,000  Level Indianapolis Center
06:31PM 38.7039 -82.0503 28° Northeast 482 555 35,000  Level Indianapolis Center
06:33PM 38.8236 -81.9672 28° Northeast 483 556 35,000  Level Indianapolis Center
06:34PM 38.9428 -81.8858 28° Northeast 479 551 35,000  Level Indianapolis Center
06:35PM 39.0614 -81.8042 28° Northeast 478 550 35,000  Level Indianapolis Center
06:36PM 39.1786 -81.7217 29° Northeast 474 545 35,000  Level Indianapolis Center
06:37PM 39.3200 -81.6214 29° Northeast 479 551 35,000  Level Indianapolis Center
06:38PM 39.4361 -81.5400 28° Northeast 475 547 35,000  Level Indianapolis Center
06:39PM 39.5536 -81.4581 28° Northeast 476 548 35,000  Level Indianapolis Center
06:39PM 39.6347 -81.4025 28° Northeast 486 559 35,000  Level Cleveland Center
06:40PM 39.7519 -81.3203 28° Northeast 481 554 35,000  Level Cleveland Center
06:41PM 39.8631 -81.2375 30° Northeast 476 548 35,000  Level Cleveland Center
06:42PM 39.9019 -81.2103 28° Northeast 476 548 35,000  Level Indianapolis Center
06:43PM 40.0297 -81.1169 29° Northeast 478 550 35,000  Level Indianapolis Center
06:43PM 40.0975 -81.0717 27° Northeast 471 542 35,000  Level Cleveland Center
06:44PM 40.2125 -80.9856 30° Northeast 471 542 35,000  Level Cleveland Center
06:45PM 40.3272 -80.9044 28° Northeast 472 543 35,000  Level Cleveland Center
06:46PM 40.4422 -80.8206 29° Northeast 472 543 35,000  Level Cleveland Center
06:47PM 40.5569 -80.7361 29° Northeast 472 543 35,000  Level Cleveland Center
06:48PM 40.6697 -80.6542 29° Northeast 465 535 35,000  Level Cleveland Center
06:49PM 40.7842 -80.5694 29° Northeast 465 535 35,000 -60 Level Cleveland Center
06:50PM 40.8989 -80.4869 29° Northeast 470 541 34,900 -300 Descending Cleveland Center
06:51PM 41.0133 -80.4014 29° Northeast 470 541 34,400 -480 Descending Cleveland Center
06:52PM 41.1322 -80.3131 29° Northeast 470 541 34,000 -360 Descending Cleveland Center
06:53PM 41.2444 -80.2297 29° Northeast 470 541 33,700 -420 Descending Cleveland Center
06:54PM 41.3631 -80.1406 29° Northeast 470 541 33,200 -540 Descending Cleveland Center
06:55PM 41.4814 -80.0483 30° Northeast 475 547 32,700 -540 Descending Cleveland Center
06:56PM 41.5997 -79.9639 28° Northeast 482 555 32,200 -540 Descending Cleveland Center
06:57PM 41.7325 -79.8569 31° Northeast 497 572 31,700 -540 Descending Cleveland Center
06:58PM 41.8569 -79.7664 28° Northeast 497 572 31,200 -600 Descending Cleveland Center
06:59PM 41.9644 -79.6450 40° Northeast 502 578 30,500 -1,200 Descending Cleveland Center
07:00PM 42.0675 -79.5147 43° Northeast 502 578 28,800 -1,680 Descending Cleveland Center
07:01PM 42.1686 -79.3897 42° Northeast 496 571 27,200 -1,620 Descending Cleveland Center
07:02PM 42.2864 -79.3144 25° Northeast 476 548 25,600 -1,620 Descending Cleveland Center
07:03PM 42.4158 -79.3119 North 443 510 24,000 -1,500 Descending Cleveland Center
07:04PM 42.5261 -79.3097 North 449 517 22,600 -1,500 Descending Cleveland Center
07:05PM 42.6492 -79.3100 360° North 437 503 21,000 -1,620 Descending Cleveland Center
07:06PM 42.7594 -79.3078 North 417 480 19,400 -1,620 Descending Cleveland Center
07:07PM 42.8575 -79.3117 358° North 385 443 17,800 -1,800 Descending Cleveland Center
07:08PM 42.9333 -79.3000 North 340 391 16,200 -2,040 Descending Toronto Center